KPHL/PHL METAR and TAF weather

Enter ICAO airport designator
Station Type Date Time Source
KPHL METAR 2019/12/07 06:54 UTC NOAA

KPHL 070654Z 35010KT 10SM CLR 03/M06 A3023 RMK AO2 SLP237 T00331056 $


Station Type Date Time Source
KPHL Decoded METAR 2019/12/07 06:54 UTC NOAA

PHILADELPHIA INTERNATIONAL AIRPT, PA, United States (KPHL) 39-52N 075-14W 18M
Dec 07, 2019 - 01:54 AM EST / 2019.12.07 0654 UTC
Wind: from the N (350 degrees) at 12 MPH (10 KT):0
Visibility: 10 mile(s):0
Sky conditions: clear
Temperature: 37.9 F (3.3 C)
Dew Point: 21.9 F (-5.6 C)
Relative Humidity: 52%
Pressure (altimeter): 30.23 in. Hg (1023 hPa)
ob: KPHL 070654Z 35010KT 10SM CLR 03/M06 A3023 RMK AO2 SLP237 T00331056
cycle: 7

Station Type Date Time Source
KPHL TAF 2019/12/07 06:32 UTC NOAA

TAF KPHL 070527Z 0706/0812 33008KT P6SM FEW250
FM080000 00000KT P6SM FEW200

Example: see airport list